Time;durP1;ratioP1;P1;durP2;ratioP2;P2;SDS_P1;SDS_P2;PMS_P1;PMS_P2;Temp;Humidity;BMP_temperature;BMP_pressure;BME280_temperature;BME280_humidity;BME280_pressure;Samples;Min_cycle;Max_cycle;Signal;HPM_P1;HPM_P2
2021/07/24 00:02:03;;;;;;;7.13;5.82;;;22.70;56.60;;;;;;5049182;28;20622;-78
2021/07/24 00:04:29;;;;;;;7.72;5.78;;;22.70;56.60;;;;;;5064080;28;20033;-78
2021/07/24 00:06:59;;;;;;;6.38;5.50;;;22.70;56.60;;;;;;5082014;28;20028;-79
2021/07/24 00:09:25;;;;;;;8.07;5.88;;;22.60;56.50;;;;;;5065936;28;20072;-77
2021/07/24 00:11:51;;;;;;;6.63;5.45;;;22.60;56.50;;;;;;5066638;28;20503;-78
2021/07/24 00:14:17;;;;;;;6.22;5.22;;;22.60;56.60;;;;;;5065694;28;20046;-77
2021/07/24 00:16:43;;;;;;;8.75;5.47;;;22.50;56.40;;;;;;5064773;28;20266;-78
2021/07/24 00:19:09;;;;;;;7.65;5.95;;;22.50;56.50;;;;;;5066054;28;20529;-77
2021/07/24 00:21:35;;;;;;;5.45;4.95;;;22.50;56.50;;;;;;5066357;28;20063;-76
2021/07/24 00:24:01;;;;;;;6.28;4.70;;;22.50;56.60;;;;;;5066101;28;20286;-79
2021/07/24 00:26:27;;;;;;;8.23;4.53;;;22.40;56.40;;;;;;5064606;28;20059;-79
2021/07/24 00:28:53;;;;;;;5.25;4.75;;;22.40;56.50;;;;;;5066095;28;20059;-77
2021/07/24 00:31:19;;;;;;;5.45;4.93;;;22.40;56.60;;;;;;5065050;28;20032;-76
2021/07/24 00:33:50;;;;;;;6.13;4.90;;;22.40;56.60;;;;;;5064149;28;20068;-78
2021/07/24 00:36:16;;;;;;;5.18;4.30;;;22.30;56.50;;;;;;5064833;28;20500;-77
2021/07/24 00:38:42;;;;;;;6.10;4.55;;;22.30;56.60;;;;;;5066005;28;20032;-76
2021/07/24 00:41:35;;;;;;;5.50;5.00;;;22.30;56.60;;;;;;5066105;28;20455;-77
2021/07/24 00:44:02;;;;;;;6.27;5.20;;;22.30;56.70;;;;;;5038750;28;20072;-77
2021/07/24 00:46:31;;;;;;;7.70;5.20;;;22.20;56.40;;;;;;5068062;28;20036;-78
2021/07/24 00:49:03;;;;;;;6.25;4.80;;;22.20;56.50;;;;;;5068487;28;20029;-77
2021/07/24 00:51:49;;;;;;;6.68;4.78;;;22.20;56.60;;;;;;5068903;28;20025;-77
2021/07/24 00:54:15;;;;;;;5.57;4.97;;;22.10;56.40;;;;;;5068254;28;20553;-77
2021/07/24 00:56:43;;;;;;;5.97;5.35;;;22.10;56.40;;;;;;5069678;28;20028;-76
2021/07/24 00:59:10;;;;;;;10.05;5.68;;;22.10;56.50;;;;;;5067951;28;20551;-76
2021/07/24 01:01:41;;;;;;;7.75;5.07;;;22.10;56.50;;;;;;5051517;28;20483;-75
2021/07/24 01:04:07;;;;;;;5.90;5.07;;;22.10;56.70;;;;;;5068620;28;20483;-75
2021/07/24 01:06:34;;;;;;;6.28;5.65;;;22.00;56.50;;;;;;5068147;28;20039;-78
2021/07/24 01:09:01;;;;;;;6.20;5.20;;;22.00;56.50;;;;;;5067704;28;20051;-80
2021/07/24 01:11:28;;;;;;;6.80;5.20;;;21.90;56.40;;;;;;5067728;28;20037;-79
2021/07/24 01:13:55;;;;;;;5.60;5.10;;;21.90;56.40;;;;;;5067742;28;20048;-79
2021/07/24 01:16:22;;;;;;;6.57;5.65;;;21.90;56.50;;;;;;5068433;28;20033;-79
2021/07/24 01:18:49;;;;;;;5.93;5.25;;;21.90;56.50;;;;;;5067668;28;20119;-78
2021/07/24 01:21:29;;;;;;;6.90;5.60;;;21.80;56.40;;;;;;5068112;28;20028;-81
2021/07/24 01:23:57;;;;;;;5.90;5.20;;;21.80;56.50;;;;;;5067893;28;20052;-78
2021/07/24 01:26:29;;;;;;;6.32;5.25;;;21.80;56.60;;;;;;5067916;28;20456;-77
2021/07/24 01:28:57;;;;;;;6.82;6.15;;;21.80;56.70;;;;;;5064359;28;20083;-78
2021/07/24 01:31:24;;;;;;;7.20;5.60;;;21.70;56.50;;;;;;5055367;28;20017;-79
2021/07/24 01:33:51;;;;;;;5.60;5.07;;;21.70;56.60;;;;;;5074262;28;20471;-78
2021/07/24 01:36:17;;;;;;;6.97;5.53;;;21.60;56.60;;;;;;5065721;28;20452;-81
2021/07/24 01:38:43;;;;;;;6.57;5.22;;;21.70;56.80;;;;;;5057633;28;20086;-78
2021/07/24 01:41:13;;;;;;;6.72;5.63;;;21.60;56.70;;;;;;5069115;28;20024;-77
2021/07/24 01:43:42;;;;;;;6.32;5.72;;;21.60;56.80;;;;;;5052180;28;20020;-79
2021/07/24 01:46:09;;;;;;;7.38;5.45;;;21.50;56.70;;;;;;5054513;28;20029;-76
2021/07/24 01:54:51;;;;;;;6.13;5.18;;;21.50;57.00;;;;;;5053125;28;20044;-81
2021/07/24 01:57:21;;;;;;;5.95;5.35;;;21.40;56.80;;;;;;5068318;28;20027;-76
2021/07/24 02:00:07;;;;;;;8.65;5.43;;;21.40;57.00;;;;;;5068200;28;20143;-76
2021/07/24 02:02:35;;;;;;;5.97;5.40;;;21.30;56.80;;;;;;5052853;28;20483;-75
2021/07/24 02:05:04;;;;;;;6.75;5.90;;;21.30;56.90;;;;;;5052769;28;20432;-77
2021/07/24 02:07:36;;;;;;;6.57;5.07;;;21.30;57.00;;;;;;5051123;28;20056;-76
2021/07/24 02:10:04;;;;;;;7.07;6.20;;;21.30;57.10;;;;;;5051483;28;20498;-79
2021/07/24 02:13:03;;;;;;;7.82;5.95;;;21.20;57.00;;;;;;5046405;28;20044;-77
2021/07/24 02:15:33;;;;;;;6.22;5.65;;;21.20;57.10;;;;;;5051534;28;20063;-78
2021/07/24 02:18:01;;;;;;;6.03;5.43;;;21.20;57.20;;;;;;5051371;28;20431;-78
2021/07/24 02:20:29;;;;;;;6.63;5.72;;;21.10;57.10;;;;;;5051499;28;20033;-78
2021/07/24 02:22:57;;;;;;;6.47;5.68;;;21.10;57.20;;;;;;5051523;28;20107;-78
2021/07/24 02:25:24;;;;;;;6.05;5.50;;;21.10;57.30;;;;;;5050829;28;20025;-77
2021/07/24 02:27:51;;;;;;;7.65;5.78;;;21.10;57.40;;;;;;5067754;28;20455;-76
2021/07/24 02:30:18;;;;;;;6.70;6.03;;;21.00;57.30;;;;;;5067655;28;20033;-78
2021/07/24 02:32:44;;;;;;;7.50;5.88;;;21.00;57.40;;;;;;5056246;28;20028;-76
2021/07/24 02:35:13;;;;;;;6.18;5.60;;;21.00;57.60;;;;;;5057700;28;20087;-75
2021/07/24 02:37:57;;;;;;;11.18;5.90;;;20.90;57.40;;;;;;5051150;28;20469;-84
2021/07/24 02:40:24;;;;;;;7.35;6.15;;;20.90;57.50;;;;;;5052563;28;20358;-77
2021/07/24 02:43:04;;;;;;;6.03;5.50;;;20.90;57.60;;;;;;5051045;28;20037;-78
2021/07/24 02:45:30;;;;;;;6.40;5.80;;;20.80;57.40;;;;;;5052031;28;20472;-76
2021/07/24 02:47:56;;;;;;;6.90;6.20;;;20.80;57.50;;;;;;5067885;28;20374;-76
2021/07/24 02:50:22;;;;;;;8.00;5.72;;;20.80;57.60;;;;;;5052134;28;20031;-77
2021/07/24 02:52:48;;;;;;;5.80;5.20;;;20.80;57.70;;;;;;5052119;28;20041;-76
2021/07/24 02:55:15;;;;;;;6.47;5.88;;;20.70;57.60;;;;;;5050797;28;20094;-79
2021/07/24 02:57:41;;;;;;;7.50;5.65;;;20.70;57.70;;;;;;5068906;28;20033;-77
2021/07/24 03:00:08;;;;;;;6.63;5.78;;;20.70;57.80;;;;;;5051022;28;20025;-76
2021/07/24 03:02:34;;;;;;;6.22;5.50;;;20.70;57.80;;;;;;5056541;28;20380;-75
2021/07/24 03:05:00;;;;;;;5.85;5.32;;;20.60;57.70;;;;;;5060674;28;20044;-75
2021/07/24 03:07:26;;;;;;;6.93;6.25;;;20.60;57.80;;;;;;5060810;28;20041;-78
2021/07/24 03:09:52;;;;;;;6.82;5.63;;;20.60;57.90;;;;;;5062134;28;20041;-75
2021/07/24 03:12:18;;;;;;;6.65;5.95;;;20.60;58.00;;;;;;5062085;28;20021;-78
2021/07/24 03:14:45;;;;;;;5.80;5.30;;;20.50;57.80;;;;;;5062820;28;20033;-75
2021/07/24 03:17:11;;;;;;;7.13;6.10;;;20.50;57.90;;;;;;5060563;28;20029;-80
2021/07/24 03:19:37;;;;;;;7.05;6.35;;;20.50;58.00;;;;;;5077654;28;20067;-75
2021/07/24 03:22:03;;;;;;;6.35;5.72;;;20.50;58.10;;;;;;5063176;28;20226;-77
2021/07/24 03:24:29;;;;;;;10.10;7.25;;;20.40;58.00;;;;;;5070802;28;20044;-76
2021/07/24 03:26:55;;;;;;;6.90;5.97;;;20.40;58.10;;;;;;5059522;28;20025;-76
2021/07/24 03:29:22;;;;;;;7.28;6.65;;;20.40;58.10;;;;;;5059712;28;20086;-76
2021/07/24 03:31:49;;;;;;;7.15;5.40;;;20.30;58.00;;;;;;5059564;28;20078;-77
2021/07/24 03:34:15;;;;;;;8.20;6.63;;;20.30;58.10;;;;;;5054391;28;20167;-77
2021/07/24 03:36:41;;;;;;;7.18;6.25;;;20.30;58.20;;;;;;5068958;28;20063;-80
2021/07/24 03:39:07;;;;;;;6.68;6.07;;;20.20;58.20;;;;;;5053407;28;20029;-80
2021/07/24 03:41:35;;;;;;;7.75;6.97;;;20.20;58.30;;;;;;5052617;28;20029;-77
2021/07/24 03:44:02;;;;;;;7.53;6.53;;;20.20;58.40;;;;;;5050892;28;20025;-76
2021/07/24 03:46:28;;;;;;;8.40;6.95;;;20.20;58.50;;;;;;5055431;28;20036;-76
2021/07/24 03:48:55;;;;;;;7.43;6.75;;;20.20;58.50;;;;;;5057640;28;20063;-77
2021/07/24 03:51:21;;;;;;;8.63;6.32;;;20.10;58.40;;;;;;5053055;28;20098;-80
2021/07/24 03:53:47;;;;;;;6.43;5.88;;;20.10;58.50;;;;;;5052642;28;20064;-78
2021/07/24 03:56:17;;;;;;;9.10;6.60;;;20.10;58.50;;;;;;5054749;28;20028;-77
2021/07/24 03:58:45;;;;;;;9.18;6.78;;;20.10;58.60;;;;;;5051879;28;20044;-79
2021/07/24 04:01:11;;;;;;;7.45;6.70;;;20.10;58.70;;;;;;5053903;28;20032;-78
2021/07/24 04:03:37;;;;;;;7.47;6.60;;;20.00;58.60;;;;;;5051605;28;20044;-79
2021/07/24 04:06:07;;;;;;;7.45;6.53;;;20.00;58.60;;;;;;5050754;28;20025;-76
2021/07/24 04:08:34;;;;;;;7.13;6.43;;;20.00;58.70;;;;;;5052283;28;20373;-77
2021/07/24 04:11:02;;;;;;;7.68;6.93;;;20.00;58.80;;;;;;5050700;28;20383;-79
2021/07/24 04:13:28;;;;;;;8.43;7.47;;;19.90;58.70;;;;;;5050772;28;20033;-78
2021/07/24 04:15:54;;;;;;;8.88;7.68;;;19.90;58.70;;;;;;5050529;28;20032;-78
2021/07/24 04:18:24;;;;;;;7.95;7.15;;;19.90;58.80;;;;;;5051008;28;20086;-78
2021/07/24 04:20:51;;;;;;;8.57;7.40;;;19.90;58.80;;;;;;5051965;28;20037;-78
2021/07/24 04:23:17;;;;;;;8.05;7.22;;;19.90;58.90;;;;;;5054818;28;20180;-78
2021/07/24 04:25:43;;;;;;;7.88;7.10;;;19.80;58.90;;;;;;5053138;28;20025;-80
2021/07/24 04:28:09;;;;;;;9.68;7.45;;;19.80;58.90;;;;;;5055775;28;20029;-78
2021/07/24 04:30:35;;;;;;;8.32;7.43;;;19.80;59.60;;;;;;5054633;28;20115;-78
2021/07/24 04:33:01;;;;;;;7.40;6.70;;;19.80;59.10;;;;;;5054704;28;20124;-77
2021/07/24 04:35:27;;;;;;;8.52;7.05;;;19.70;59.00;;;;;;5054476;28;20068;-77
2021/07/24 04:37:53;;;;;;;7.28;6.57;;;19.70;59.10;;;;;;5054434;28;20059;-81
2021/07/24 04:40:19;;;;;;;9.20;7.93;;;19.70;59.20;;;;;;5053385;28;20045;-77
2021/07/24 04:42:45;;;;;;;9.75;7.65;;;19.70;59.30;;;;;;5069925;28;20112;-76
2021/07/24 04:45:11;;;;;;;8.25;7.45;;;19.70;59.40;;;;;;5054966;28;20047;-78
2021/07/24 04:47:37;;;;;;;9.25;7.82;;;19.70;59.50;;;;;;5055914;28;20032;-78
2021/07/24 04:50:03;;;;;;;8.15;7.22;;;19.60;59.40;;;;;;5064142;28;20044;-78
2021/07/24 04:52:29;;;;;;;10.85;7.95;;;19.60;59.60;;;;;;5058944;28;20037;-77
2021/07/24 04:54:59;;;;;;;8.60;7.68;;;19.60;59.60;;;;;;5049823;28;20069;-77
2021/07/24 04:57:30;;;;;;;8.73;7.47;;;19.60;59.80;;;;;;5051731;28;20450;-75
2021/07/24 04:59:57;;;;;;;12.00;7.57;;;19.50;59.60;;;;;;5069615;28;20032;-78
2021/07/24 05:02:23;;;;;;;8.77;7.85;;;19.50;59.70;;;;;;5069878;28;20480;-80
2021/07/24 05:04:50;;;;;;;8.50;7.65;;;19.50;59.80;;;;;;5084728;28;20561;-77
2021/07/24 05:07:18;;;;;;;12.15;8.43;;;19.50;59.90;;;;;;5067616;28;20032;-74
2021/07/24 05:09:45;;;;;;;8.50;7.68;;;19.40;59.80;;;;;;5056174;28;20044;-76
2021/07/24 05:12:11;;;;;;;9.55;8.48;;;19.40;59.80;;;;;;5050221;28;20060;-75
2021/07/24 05:14:37;;;;;;;9.32;8.10;;;19.40;60.00;;;;;;5067664;28;20033;-76
2021/07/24 05:17:12;;;;;;;8.98;8.05;;;19.40;60.00;;;;;;5068891;28;20052;-79
2021/07/24 05:19:43;;;;;;;9.10;8.10;;;19.30;60.00;;;;;;5068645;28;20033;-76
2021/07/24 05:22:12;;;;;;;9.20;8.30;;;19.30;60.00;;;;;;5069061;28;20483;-73
2021/07/24 05:24:40;;;;;;;12.95;8.27;;;19.30;60.10;;;;;;5080665;28;20032;-77
2021/07/24 05:27:06;;;;;;;10.88;9.52;;;19.30;60.10;;;;;;5089633;28;20028;-77
2021/07/24 05:29:33;;;;;;;12.50;8.88;;;19.30;60.20;;;;;;5069391;28;20123;-73
2021/07/24 05:31:59;;;;;;;10.77;8.45;;;19.30;60.30;;;;;;5066766;28;20446;-73
2021/07/24 05:34:25;;;;;;;8.80;7.93;;;19.20;60.20;;;;;;5067360;28;20040;-73
2021/07/24 05:36:52;;;;;;;12.88;8.10;;;19.30;60.50;;;;;;5060235;28;20029;-73
2021/07/24 05:39:18;;;;;;;9.85;8.85;;;19.20;60.40;;;;;;5065491;28;20032;-73
2021/07/24 05:41:44;;;;;;;10.02;8.55;;;19.20;60.50;;;;;;5068368;28;20032;-75
2021/07/24 05:44:12;;;;;;;12.00;8.52;;;19.20;60.60;;;;;;5057731;28;20488;-73
2021/07/24 05:46:38;;;;;;;9.77;8.10;;;19.20;61.20;;;;;;5055487;28;20252;-73
2021/07/24 05:49:05;;;;;;;9.23;8.30;;;19.20;60.70;;;;;;5063254;28;20407;-73
2021/07/24 05:51:31;;;;;;;9.10;8.20;;;19.10;60.60;;;;;;5068351;28;20036;-75
2021/07/24 05:53:57;;;;;;;8.90;7.72;;;19.10;60.70;;;;;;5066394;28;20572;-75
2021/07/24 05:56:23;;;;;;;9.13;7.47;;;19.10;60.70;;;;;;5068441;28;20025;-72
2021/07/24 05:58:49;;;;;;;8.60;7.03;;;19.10;60.70;;;;;;5061001;28;20048;-72
2021/07/24 06:01:15;;;;;;;7.72;6.93;;;19.10;60.80;;;;;;5064095;28;20021;-72
2021/07/24 06:03:41;;;;;;;8.68;7.82;;;19.20;61.00;;;;;;5067944;28;20055;-74
2021/07/24 06:06:07;;;;;;;8.70;7.82;;;19.20;61.00;;;;;;5068070;28;20024;-72
2021/07/24 06:08:33;;;;;;;7.20;6.60;;;19.20;61.00;;;;;;5066843;28;20044;-76
2021/07/24 06:11:01;;;;;;;7.82;6.93;;;19.20;61.00;;;;;;5061396;28;20028;-76
2021/07/24 06:13:28;;;;;;;7.57;6.88;;;19.20;61.10;;;;;;5066053;28;20458;-73
2021/07/24 06:15:54;;;;;;;7.13;6.05;;;19.10;60.90;;;;;;5086689;28;20039;-73
2021/07/24 06:18:21;;;;;;;9.13;7.47;;;19.20;61.00;;;;;;5078446;28;20032;-72
2021/07/24 06:20:48;;;;;;;8.23;7.20;;;19.20;61.00;;;;;;5067157;28;20169;-76
2021/07/24 06:23:17;;;;;;;10.70;7.38;;;19.20;61.10;;;;;;5067361;28;20032;-73
2021/07/24 06:25:45;;;;;;;8.27;7.00;;;19.20;61.00;;;;;;5067991;28;20029;-75
2021/07/24 06:28:11;;;;;;;8.70;6.03;;;19.30;61.20;;;;;;5067372;28;20388;-73
2021/07/24 06:30:38;;;;;;;8.15;6.22;;;19.20;60.90;;;;;;5067603;28;20028;-74
2021/07/24 06:33:05;;;;;;;9.40;6.38;;;19.20;60.90;;;;;;5058922;28;20048;-73
2021/07/24 06:35:31;;;;;;;16.27;6.60;;;19.20;60.90;;;;;;5050029;28;20032;-73
2021/07/24 06:37:57;;;;;;;8.98;6.97;;;19.30;61.10;;;;;;5061973;28;20473;-74
2021/07/24 06:40:23;;;;;;;5.97;5.47;;;19.20;60.90;;;;;;5054402;28;20138;-74
2021/07/24 06:42:50;;;;;;;10.05;6.30;;;19.20;60.90;;;;;;5062071;28;20021;-74
2021/07/24 06:45:16;;;;;;;7.57;6.72;;;19.30;61.20;;;;;;5067047;28;20309;-75
2021/07/24 06:47:41;;;;;;;6.57;5.97;;;19.30;61.20;;;;;;5066712;28;20434;-73
2021/07/24 06:50:08;;;;;;;6.88;6.10;;;19.30;61.20;;;;;;5065917;28;20103;-73
2021/07/24 06:52:34;;;;;;;8.70;6.10;;;19.20;61.00;;;;;;5066659;28;20036;-73
2021/07/24 06:55:00;;;;;;;7.82;5.78;;;19.30;61.30;;;;;;5067102;28;20040;-74
2021/07/24 06:57:27;;;;;;;7.38;5.75;;;19.30;61.20;;;;;;5066369;28;20582;-75
2021/07/24 06:59:54;;;;;;;7.75;6.20;;;19.30;61.20;;;;;;5067178;28;20037;-74
2021/07/24 07:02:20;;;;;;;6.15;5.47;;;19.30;61.20;;;;;;5048800;28;20039;-73
2021/07/24 07:04:46;;;;;;;6.55;5.95;;;19.30;61.20;;;;;;5066660;28;20446;-75
2021/07/24 07:07:12;;;;;;;5.88;5.38;;;19.40;61.20;;;;;;5066430;28;20101;-75
2021/07/24 07:09:38;;;;;;;6.28;5.60;;;19.40;61.20;;;;;;5066001;28;20043;-77
2021/07/24 07:12:04;;;;;;;8.30;6.30;;;19.40;61.20;;;;;;5065262;28;20390;-74
2021/07/24 07:14:30;;;;;;;6.38;5.78;;;19.50;61.30;;;;;;5064929;28;20441;-74
2021/07/24 07:16:56;;;;;;;7.53;6.68;;;19.50;61.40;;;;;;5060009;28;20190;-73
2021/07/24 07:19:22;;;;;;;7.47;5.57;;;19.50;61.40;;;;;;5071053;28;20431;-74
2021/07/24 07:21:49;;;;;;;6.80;6.20;;;19.50;61.40;;;;;;5045363;28;20115;-75
2021/07/24 07:24:15;;;;;;;6.75;6.15;;;19.50;61.50;;;;;;5063778;28;20037;-76
2021/07/24 07:26:42;;;;;;;6.88;6.18;;;19.50;61.50;;;;;;5066246;28;20051;-74
2021/07/24 07:29:08;;;;;;;6.45;5.45;;;19.50;61.60;;;;;;5065664;28;20458;-75
2021/07/24 07:31:36;;;;;;;7.53;6.63;;;19.40;61.40;;;;;;5054451;28;20036;-73
2021/07/24 07:34:03;;;;;;;6.97;6.28;;;19.40;61.50;;;;;;5063118;28;20499;-72
2021/07/24 07:36:29;;;;;;;7.38;5.60;;;19.40;61.50;;;;;;5064999;28;20025;-75
2021/07/24 07:38:55;;;;;;;10.05;5.93;;;19.40;61.50;;;;;;5064917;28;20427;-74
2021/07/24 07:41:21;;;;;;;8.00;6.15;;;19.40;61.50;;;;;;5052955;28;20021;-74
2021/07/24 07:43:48;;;;;;;8.93;6.40;;;19.40;61.60;;;;;;5062290;28;20037;-75
2021/07/24 07:46:14;;;;;;;7.13;5.97;;;19.50;61.80;;;;;;5055305;28;20107;-74
2021/07/24 07:48:41;;;;;;;6.15;5.55;;;19.50;61.70;;;;;;5064553;28;20501;-74
2021/07/24 07:51:08;;;;;;;7.28;5.95;;;19.50;61.70;;;;;;5063693;28;20094;-74
2021/07/24 07:53:35;;;;;;;6.25;5.65;;;19.50;61.60;;;;;;5063616;28;20041;-74
2021/07/24 07:56:01;;;;;;;9.63;5.75;;;19.50;61.60;;;;;;5064557;28;20024;-74
2021/07/24 07:58:27;;;;;;;8.77;6.28;;;19.50;61.60;;;;;;5063121;28;20127;-74
2021/07/24 08:00:54;;;;;;;5.88;5.28;;;19.60;61.80;;;;;;5063566;28;20148;-73
2021/07/24 08:03:24;;;;;;;6.50;5.80;;;19.50;61.60;;;;;;5065410;28;20044;-75
2021/07/24 08:05:54;;;;;;;8.25;5.50;;;19.60;61.80;;;;;;5065881;28;20040;-74
2021/07/24 08:08:20;;;;;;;6.43;5.80;;;19.60;61.90;;;;;;5065932;28;20060;-74
2021/07/24 08:10:46;;;;;;;7.13;6.40;;;19.50;61.60;;;;;;5065075;28;20058;-73
2021/07/24 08:13:17;;;;;;;7.30;5.60;;;19.50;61.60;;;;;;5064725;28;20028;-74
2021/07/24 08:15:48;;;;;;;7.13;5.85;;;19.50;61.70;;;;;;5056302;28;20032;-75
2021/07/24 08:18:14;;;;;;;8.45;5.85;;;19.50;61.70;;;;;;5061222;28;20070;-75
2021/07/24 08:20:41;;;;;;;8.73;5.38;;;19.50;61.60;;;;;;5048193;28;20083;-73
2021/07/24 08:23:13;;;;;;;5.85;5.13;;;19.50;61.70;;;;;;5064836;28;20036;-74
2021/07/24 08:25:43;;;;;;;6.18;5.57;;;19.50;61.70;;;;;;5065585;28;20526;-75
2021/07/24 08:28:10;;;;;;;7.78;5.30;;;19.50;61.70;;;;;;5065939;28;20052;-74
2021/07/24 08:30:36;;;;;;;6.53;5.93;;;19.50;61.70;;;;;;5064627;28;20427;-75
2021/07/24 08:33:03;;;;;;;6.18;5.45;;;19.50;61.70;;;;;;5065463;28;20032;-75
2021/07/24 08:35:29;;;;;;;6.07;5.43;;;19.50;61.70;;;;;;5065604;28;20048;-75
2021/07/24 08:37:55;;;;;;;7.15;5.15;;;19.50;61.70;;;;;;5065097;28;20021;-73
2021/07/24 08:40:21;;;;;;;6.55;5.32;;;19.50;61.70;;;;;;5047387;28;20075;-73
2021/07/24 08:42:48;;;;;;;8.40;5.65;;;19.40;61.60;;;;;;5065365;28;20040;-74
2021/07/24 08:45:19;;;;;;;7.35;5.95;;;19.50;61.80;;;;;;5065188;28;20078;-73
2021/07/24 08:47:45;;;;;;;7.15;5.05;;;19.50;61.80;;;;;;5064229;28;20032;-74
2021/07/24 08:50:13;;;;;;;6.45;5.78;;;19.50;61.80;;;;;;5081463;28;20028;-74
2021/07/24 08:52:40;;;;;;;5.78;5.28;;;19.50;61.80;;;;;;5081039;28;20100;-74
2021/07/24 08:55:07;;;;;;;5.70;5.20;;;19.50;61.80;;;;;;5080761;28;20033;-74
2021/07/24 08:57:40;;;;;;;7.47;5.28;;;19.50;61.90;;;;;;5063814;28;20389;-74
2021/07/24 09:00:13;;;;;;;7.57;6.50;;;19.50;61.90;;;;;;5063853;28;20491;-74
2021/07/24 09:02:47;;;;;;;5.80;5.28;;;19.50;61.90;;;;;;5064202;28;20458;-74
2021/07/24 09:05:17;;;;;;;7.95;5.38;;;19.50;61.90;;;;;;5065672;28;20029;-73
2021/07/24 09:07:46;;;;;;;6.68;5.78;;;19.50;61.90;;;;;;5065925;28;20056;-74
2021/07/24 09:10:13;;;;;;;5.88;5.25;;;19.50;61.90;;;;;;5068790;28;20025;-73
2021/07/24 09:12:41;;;;;;;6.22;5.60;;;19.50;61.90;;;;;;5068419;28;20644;-73
2021/07/24 09:15:09;;;;;;;6.45;5.53;;;19.60;62.00;;;;;;5069040;28;20036;-74
2021/07/24 09:17:35;;;;;;;6.68;6.07;;;19.60;62.00;;;;;;5068360;28;20409;-74
2021/07/24 09:20:02;;;;;;;5.72;5.18;;;19.60;62.00;;;;;;5068955;28;20117;-74
2021/07/24 09:22:42;;;;;;;6.78;5.90;;;19.60;62.00;;;;;;5068683;28;20468;-74
2021/07/24 09:25:10;;;;;;;6.15;5.50;;;19.60;62.00;;;;;;5068758;28;20102;-74
2021/07/24 09:27:45;;;;;;;6.15;5.55;;;19.60;62.00;;;;;;5068771;28;20457;-73
2021/07/24 09:30:33;;;;;;;8.40;5.93;;;19.60;62.00;;;;;;5068705;28;20024;-73
2021/07/24 09:33:08;;;;;;;7.95;5.90;;;19.60;62.10;;;;;;5067408;28;20047;-73
2021/07/24 09:35:51;;;;;;;6.63;5.53;;;19.70;62.20;;;;;;5068889;28;20452;-72
2021/07/24 09:38:32;;;;;;;6.72;6.05;;;19.80;62.30;;;;;;5068533;28;20086;-74
2021/07/24 09:41:03;;;;;;;6.63;6.03;;;19.80;62.20;;;;;;5066762;28;20613;-75
2021/07/24 09:43:36;;;;;;;6.60;5.82;;;19.90;62.20;;;;;;5068095;28;20598;-74
2021/07/24 09:46:15;;;;;;;7.30;5.63;;;20.00;62.30;;;;;;5049864;28;20033;-74
2021/07/24 09:48:52;;;;;;;6.93;6.22;;;20.00;62.30;;;;;;5063949;28;20029;-74
2021/07/24 09:51:53;;;;;;;7.45;6.63;;;20.00;62.20;;;;;;5059245;28;20032;-73
2021/07/24 09:54:27;;;;;;;6.70;6.00;;;20.10;62.30;;;;;;4985949;28;20207;-73
2021/07/24 09:56:53;;;;;;;;;;;20.10;62.30;;;;;;5035113;28;20029;-73
2021/07/24 09:59:31;;;;;;;7.72;6.68;;;20.10;62.10;;;;;;5064198;28;19908;-73
2021/07/24 10:02:04;;;;;;;6.03;5.43;;;20.10;62.10;;;;;;5066916;28;20045;-73
2021/07/24 10:04:34;;;;;;;7.28;5.80;;;20.10;62.10;;;;;;5067620;28;20347;-73
2021/07/24 10:07:03;;;;;;;8.82;6.63;;;20.10;62.10;;;;;;5068186;28;20337;-73
2021/07/24 10:09:33;;;;;;;7.75;6.07;;;20.10;62.10;;;;;;5065038;28;20032;-73
2021/07/24 10:12:02;;;;;;;7.25;5.93;;;20.10;62.20;;;;;;5066241;28;20033;-73
2021/07/24 10:14:29;;;;;;;8.10;6.40;;;20.10;62.30;;;;;;5067088;28;20291;-78
2021/07/24 10:16:56;;;;;;;7.28;6.50;;;20.10;62.30;;;;;;5066658;28;20051;-75
2021/07/24 10:19:24;;;;;;;7.20;6.22;;;20.10;62.40;;;;;;5067888;28;20031;-74
2021/07/24 10:21:51;;;;;;;6.97;5.90;;;20.10;62.40;;;;;;5067611;28;20062;-75
2021/07/24 10:24:18;;;;;;;6.80;6.20;;;20.10;62.50;;;;;;5067524;28;20024;-75
2021/07/24 10:27:06;;;;;;;7.68;6.32;;;20.10;62.50;;;;;;5066291;28;20035;-74
2021/07/24 10:29:36;;;;;;;6.95;6.05;;;20.10;62.50;;;;;;5063535;28;20186;-74
2021/07/24 10:32:10;;;;;;;7.35;6.25;;;20.10;62.50;;;;;;5056625;28;20497;-73
2021/07/24 10:34:47;;;;;;;7.30;6.60;;;20.10;62.50;;;;;;5047248;28;20069;-75
2021/07/24 10:37:42;;;;;;;6.82;6.13;;;20.00;62.30;;;;;;5046556;28;20163;-75
2021/07/24 10:40:17;;;;;;;7.45;6.78;;;20.10;62.50;;;;;;5047654;28;20106;-75
2021/07/24 10:42:53;;;;;;;9.05;7.25;;;20.10;62.60;;;;;;5051893;28;20036;-74
2021/07/24 10:45:31;;;;;;;7.47;6.78;;;20.10;62.50;;;;;;5076517;28;20492;-72
2021/07/24 10:48:26;;;;;;;6.50;5.90;;;20.10;62.50;;;;;;5066931;28;20040;-73
2021/07/24 10:51:15;;;;;;;8.90;6.95;;;20.10;62.60;;;;;;5053675;28;20108;-73
2021/07/24 10:54:05;;;;;;;8.10;7.30;;;20.10;62.50;;;;;;5057228;28;20498;-74
2021/07/24 10:56:39;;;;;;;7.72;6.32;;;20.10;62.50;;;;;;5065136;28;20127;-75
2021/07/24 10:59:16;;;;;;;8.10;6.85;;;20.10;62.50;;;;;;5065817;28;20024;-75
2021/07/24 11:01:48;;;;;;;7.60;6.72;;;20.10;62.60;;;;;;5063502;28;20095;-74
2021/07/24 11:04:36;;;;;;;7.97;7.18;;;20.10;62.50;;;;;;5052354;28;20020;-75
2021/07/24 11:07:14;;;;;;;10.48;8.77;;;20.20;62.80;;;;;;5053439;28;20179;-77
2021/07/24 11:09:44;;;;;;;12.02;9.07;;;20.20;63.10;;;;;;5065610;28;20121;-77
2021/07/24 11:12:12;;;;;;;13.50;9.75;;;20.10;63.20;;;;;;5055573;28;20369;-74
2021/07/24 11:14:38;;;;;;;14.43;10.05;;;20.20;63.60;;;;;;5066295;28;20037;-75
2021/07/24 11:17:05;;;;;;;14.00;10.90;;;20.20;63.90;;;;;;5066372;28;20041;-75
2021/07/24 11:19:42;;;;;;;10.73;9.63;;;20.30;64.30;;;;;;5067021;28;20090;-77
2021/07/24 11:22:15;;;;;;;16.33;11.18;;;20.40;64.90;;;;;;5045911;28;20025;-75
2021/07/24 11:24:43;;;;;;;;;;;20.40;64.90;;;;;;5060354;28;20477;-74
2021/07/24 11:27:10;;;;;;;15.65;11.85;;;20.40;64.50;;;;;;5065475;28;19909;-74
2021/07/24 11:29:40;;;;;;;12.52;11.23;;;20.50;64.70;;;;;;5064934;28;20029;-74
2021/07/24 11:32:07;;;;;;;16.98;11.70;;;20.50;64.90;;;;;;5064305;28;20147;-75
2021/07/24 11:34:35;;;;;;;14.70;11.20;;;20.50;65.10;;;;;;5065544;28;20440;-73
2021/07/24 11:37:02;;;;;;;18.25;12.77;;;20.50;65.20;;;;;;5065608;28;20056;-74
2021/07/24 11:39:30;;;;;;;14.02;12.55;;;20.60;65.50;;;;;;5078846;28;20027;-74
2021/07/24 11:41:57;;;;;;;15.35;13.82;;;20.60;65.60;;;;;;5064855;28;20025;-75
2021/07/24 11:44:30;;;;;;;14.52;13.02;;;20.60;65.70;;;;;;5065286;28;20020;-73
2021/07/24 11:46:59;;;;;;;13.75;12.38;;;20.60;66.00;;;;;;5065093;28;20028;-75
2021/07/24 11:49:26;;;;;;;14.20;12.18;;;20.60;66.00;;;;;;5062829;28;20070;-75
2021/07/24 11:51:52;;;;;;;17.77;12.85;;;20.70;66.20;;;;;;5053197;28;20025;-73
2021/07/24 11:54:29;;;;;;;19.38;14.65;;;20.70;66.30;;;;;;5062904;28;20040;-75
2021/07/24 11:56:54;;;;;;;14.90;13.27;;;20.70;66.60;;;;;;5062369;28;20484;-75
2021/07/24 11:59:21;;;;;;;16.30;14.07;;;20.70;66.50;;;;;;5055079;28;20036;-74
2021/07/24 12:01:47;;;;;;;14.50;13.05;;;20.70;66.70;;;;;;5075050;28;20051;-74
2021/07/24 12:04:16;;;;;;;16.77;14.48;;;20.70;66.90;;;;;;5058786;28;20040;-74
2021/07/24 12:07:02;;;;;;;16.92;15.40;;;20.80;67.40;;;;;;5054995;28;20032;-74
2021/07/24 12:09:30;;;;;;;16.23;14.52;;;20.80;67.80;;;;;;5064156;28;20056;-73
2021/07/24 12:11:58;;;;;;;17.80;15.93;;;20.80;67.80;;;;;;5078243;28;20031;-73
2021/07/24 12:14:26;;;;;;;18.05;15.93;;;20.80;68.60;;;;;;5058661;28;20218;-74
2021/07/24 12:17:08;;;;;;;18.48;16.60;;;20.90;68.60;;;;;;5064138;28;20494;-74
2021/07/24 12:19:38;;;;;;;17.88;16.10;;;20.90;69.10;;;;;;5059894;28;20131;-74
2021/07/24 12:22:26;;;;;;;21.33;17.45;;;21.00;69.40;;;;;;5063935;28;20480;-74
2021/07/24 12:25:10;;;;;;;23.08;16.25;;;21.00;69.60;;;;;;5060373;28;20036;-75
2021/07/24 12:27:47;;;;;;;20.10;18.05;;;21.10;69.80;;;;;;5046940;28;20091;-74
2021/07/24 12:30:26;;;;;;;20.00;18.05;;;21.20;70.60;;;;;;5063126;28;20103;-75
2021/07/24 12:32:52;;;;;;;20.42;17.02;;;21.20;70.70;;;;;;5059528;28;20060;-75
2021/07/24 12:35:22;;;;;;;22.67;17.92;;;21.20;70.50;;;;;;5058794;28;20028;-74
2021/07/24 12:37:48;;;;;;;23.15;20.55;;;21.20;70.60;;;;;;5080685;28;20060;-73
2021/07/24 12:40:19;;;;;;;20.15;18.00;;;21.30;70.70;;;;;;5065383;28;20055;-73
2021/07/24 12:42:46;;;;;;;21.75;19.00;;;21.30;70.80;;;;;;5083455;28;20034;-73
2021/07/24 12:45:31;;;;;;;20.00;18.08;;;21.30;70.60;;;;;;5067235;28;20407;-75
2021/07/24 12:48:18;;;;;;;18.63;16.92;;;21.30;70.70;;;;;;5067879;28;20107;-75
2021/07/24 12:51:06;;;;;;;19.08;17.30;;;21.40;70.70;;;;;;5069481;28;20035;-76
2021/07/24 12:53:32;;;;;;;19.60;17.60;;;21.40;70.60;;;;;;5068832;28;20040;-74
2021/07/24 12:55:58;;;;;;;19.17;17.38;;;21.50;70.60;;;;;;5062079;28;20028;-75
2021/07/24 12:58:24;;;;;;;19.55;17.65;;;21.60;70.70;;;;;;5059556;28;20423;-75
2021/07/24 13:00:50;;;;;;;21.17;17.77;;;21.60;70.60;;;;;;5054319;28;20040;-75